Time;durP1;ratioP1;P1;durP2;ratioP2;P2;SDS_P1;SDS_P2;PMS_P1;PMS_P2;Temp;Humidity;BMP_temperature;BMP_pressure;BME280_temperature;BME280_humidity;BME280_pressure;Samples;Min_cycle;Max_cycle;Signal;HPM_P1;HPM_P2
2022/07/28 00:00:11;;;;;;;;;;;24.10;63.30;;;;;;5025542;28;19921;-80
2022/07/28 00:02:38;;;;;;;;;;;24.00;63.30;;;;;;5015526;28;19929;-78
2022/07/28 00:05:06;;;;;;;;;;;23.90;63.80;;;;;;5030235;28;19924;-79
2022/07/28 00:07:33;;;;;;;;;;;23.90;63.90;;;;;;5019462;28;19925;-78
2022/07/28 00:10:01;;;;;;;;;;;23.80;64.20;;;;;;5018062;28;19932;-79
2022/07/28 00:12:28;;;;;;;;;;;23.90;64.20;;;;;;5018241;28;19925;-77
2022/07/28 00:14:55;;;;;;;;;;;23.90;64.20;;;;;;5008108;28;20336;-78
2022/07/28 00:17:22;;;;;;;;;;;23.60;64.70;;;;;;5019669;28;19925;-80
2022/07/28 00:19:49;;;;;;;;;;;23.80;64.70;;;;;;5027305;28;20016;-78
2022/07/28 00:22:17;;;;;;;;;;;23.70;65.20;;;;;;5039771;28;19932;-77
2022/07/28 00:24:44;;;;;;;;;;;23.70;65.00;;;;;;5023768;28;20040;-78
2022/07/28 00:27:16;;;;;;;;;;;23.70;65.20;;;;;;5035968;28;19928;-79
2022/07/28 00:29:45;;;;;;;;;;;23.80;65.10;;;;;;5035591;28;20055;-77
2022/07/28 00:32:17;;;;;;;;;;;23.80;65.00;;;;;;5023076;28;20370;-79
2022/07/28 00:34:44;;;;;;;;;;;23.80;65.00;;;;;;5027132;28;19925;-78
2022/07/28 00:37:12;;;;;;;;;;;23.80;65.30;;;;;;5025328;28;20833;-77
2022/07/28 00:39:41;;;;;;;;;;;23.80;65.50;;;;;;5027552;28;20444;-78
2022/07/28 00:42:08;;;;;;;;;;;23.70;65.60;;;;;;5014511;28;20374;-78
2022/07/28 00:44:37;;;;;;;;;;;23.60;65.80;;;;;;5027728;28;19925;-78
2022/07/28 00:47:04;;;;;;;;;;;23.60;66.00;;;;;;5020013;28;19931;-79
2022/07/28 00:49:32;;;;;;;;;;;23.50;66.90;;;;;;5029761;28;19925;-79
2022/07/28 00:52:01;;;;;;;;;;;23.60;66.40;;;;;;5012688;28;20352;-78
2022/07/28 00:54:29;;;;;;;;;;;23.60;66.60;;;;;;5028170;28;19944;-79
2022/07/28 00:56:56;;;;;;;;;;;23.60;66.40;;;;;;5037903;28;19971;-78
2022/07/28 00:59:24;;;;;;;;;;;23.70;66.80;;;;;;5025922;28;19921;-79
2022/07/28 01:01:51;;;;;;;;;;;23.70;67.10;;;;;;5022232;28;19928;-79
2022/07/28 01:04:20;;;;;;;;;;;23.60;66.90;;;;;;5026570;28;19925;-79
2022/07/28 01:07:01;;;;;;;;;;;23.60;67.60;;;;;;5038695;28;19925;-79
2022/07/28 01:10:01;;;;;;;;;;;23.60;68.10;;;;;;5023024;28;19931;-79
2022/07/28 01:12:31;;;;;;;;;;;23.60;68.30;;;;;;5005816;28;19928;-79
2022/07/28 01:15:05;;;;;;;;;;;23.60;68.80;;;;;;5027047;28;19958;-78
2022/07/28 01:17:39;;;;;;;;;;;23.50;68.80;;;;;;5028971;28;19928;-79
2022/07/28 01:20:15;;;;;;;;;;;23.50;69.20;;;;;;5032326;28;19935;-80
2022/07/28 01:22:51;;;;;;;;;;;23.40;69.60;;;;;;5020319;28;21610;-78
2022/07/28 01:25:44;;;;;;;;;;;23.50;70.00;;;;;;5032580;28;19929;-79
2022/07/28 01:28:33;;;;;;;;;;;23.40;70.00;;;;;;5023927;28;19979;-79
2022/07/28 01:31:02;;;;;;;;;;;23.40;70.10;;;;;;5036159;28;20362;-80
2022/07/28 01:33:35;;;;;;;;;;;23.50;70.40;;;;;;5006385;28;19920;-79
2022/07/28 01:36:08;;;;;;;;;;;23.50;70.60;;;;;;5024577;28;19935;-80
2022/07/28 01:38:36;;;;;;;;;;;23.50;70.70;;;;;;5022963;28;19968;-79
2022/07/28 01:41:06;;;;;;;;;;;23.40;71.10;;;;;;5028052;28;19932;-78
2022/07/28 01:43:35;;;;;;;;;;;23.40;71.10;;;;;;5025252;28;19925;-78
2022/07/28 01:46:03;;;;;;;;;;;23.40;71.40;;;;;;5029070;28;19967;-79
2022/07/28 01:48:32;;;;;;;;;;;23.40;71.70;;;;;;5020036;28;20380;-81
2022/07/28 01:51:01;;;;;;;;;;;23.40;71.70;;;;;;5020454;28;20686;-79
2022/07/28 01:53:30;;;;;;;;;;;23.40;71.80;;;;;;5030819;28;20361;-79
2022/07/28 01:56:04;;;;;;;;;;;23.30;71.90;;;;;;5024478;28;19987;-77
2022/07/28 01:58:33;;;;;;;;;;;23.40;72.20;;;;;;5031779;28;20004;-79
2022/07/28 02:01:02;;;;;;;;;;;23.40;72.40;;;;;;5024452;28;20385;-79
2022/07/28 02:03:30;;;;;;;;;;;23.40;72.50;;;;;;5025287;28;19928;-79
2022/07/28 02:05:58;;;;;;;;;;;23.40;72.40;;;;;;5026974;28;19926;-79
2022/07/28 02:08:25;;;;;;;;;;;23.40;72.30;;;;;;5023547;28;19929;-79
2022/07/28 02:13:40;;;;;;;;;;;23.40;72.40;;;;;;5021833;28;19925;-78
2022/07/28 02:16:09;;;;;;;;;;;23.40;72.30;;;;;;5022170;28;19983;-79
2022/07/28 02:18:37;;;;;;;;;;;23.40;72.30;;;;;;5003978;28;19936;-77
2022/07/28 02:21:06;;;;;;;;;;;23.30;72.90;;;;;;5025379;28;20027;-79
2022/07/28 02:23:33;;;;;;;;;;;23.30;72.90;;;;;;5017572;28;20407;-79
2022/07/28 02:26:03;;;;;;;;;;;23.30;72.90;;;;;;5028154;28;19921;-79
2022/07/28 02:28:30;;;;;;;;;;;23.30;73.00;;;;;;5028412;28;19936;-79
2022/07/28 02:31:00;;;;;;;;;;;23.30;73.00;;;;;;5012932;28;19928;-79
2022/07/28 02:33:27;;;;;;;;;;;23.30;73.00;;;;;;4998467;28;19932;-79
2022/07/28 02:36:18;;;;;;;;;;;23.10;73.40;;;;;;5030189;28;19961;-79
2022/07/28 02:38:48;;;;;;;;;;;23.20;73.40;;;;;;5033471;28;19964;-79
2022/07/28 02:41:21;;;;;;;;;;;23.20;73.40;;;;;;5021998;28;20550;-78
2022/07/28 02:43:50;;;;;;;;;;;23.20;73.30;;;;;;5021673;28;19925;-79
2022/07/28 02:46:29;;;;;;;;;;;23.10;73.50;;;;;;5027781;28;19929;-79
2022/07/28 02:49:03;;;;;;;;;;;23.10;73.80;;;;;;5018017;28;19932;-79
2022/07/28 02:51:32;;;;;;;;;;;23.10;74.00;;;;;;5024558;28;19932;-79
2022/07/28 02:54:00;;;;;;;;;;;23.10;74.20;;;;;;5028984;28;19933;-78
2022/07/28 02:56:27;;;;;;;;;;;23.20;74.60;;;;;;5025370;28;20292;-77
2022/07/28 02:58:56;;;;;;;;;;;23.10;75.30;;;;;;5021311;28;19925;-78
2022/07/28 03:01:24;;;;;;;;;;;23.10;75.30;;;;;;5024171;28;19931;-79
2022/07/28 03:03:51;;;;;;;;;;;23.00;76.40;;;;;;5023540;28;19980;-79
2022/07/28 03:06:22;;;;;;;;;;;23.00;75.90;;;;;;5023176;28;19928;-79
2022/07/28 03:08:56;;;;;;;;;;;23.00;75.80;;;;;;5016568;28;19925;-79
2022/07/28 03:11:23;;;;;;;;;;;23.00;75.90;;;;;;5020841;28;19925;-79
2022/07/28 03:13:50;;;;;;;;;;;22.90;76.00;;;;;;5025765;28;20351;-80
2022/07/28 03:16:17;;;;;;;;;;;22.90;76.70;;;;;;5016919;28;19931;-79
2022/07/28 03:18:45;;;;;;;;;;;22.90;76.70;;;;;;5022206;28;19972;-79
2022/07/28 03:21:12;;;;;;;;;;;22.80;76.80;;;;;;5025040;28;19921;-80
2022/07/28 03:23:40;;;;;;;;;;;22.80;77.00;;;;;;5026298;28;19921;-80
2022/07/28 03:26:14;;;;;;;;;;;22.70;77.00;;;;;;5022504;28;19975;-80
2022/07/28 03:28:43;;;;;;;;;;;22.60;76.70;;;;;;5020880;28;19936;-79
2022/07/28 03:31:12;;;;;;;;;;;22.60;76.90;;;;;;5022477;28;20344;-80
2022/07/28 03:33:40;;;;;;;;;;;22.60;77.00;;;;;;5022382;28;19929;-80
2022/07/28 03:36:09;;;;;;;;;;;22.60;77.00;;;;;;5027586;28;19925;-80
2022/07/28 03:38:39;;;;;;;;;;;22.70;76.60;;;;;;5024948;28;20012;-80
2022/07/28 03:41:07;;;;;;;;;;;22.60;77.40;;;;;;5028585;28;19979;-80
2022/07/28 03:43:34;;;;;;;;;;;22.70;77.10;;;;;;5018441;28;19971;-80
2022/07/28 03:46:02;;;;;;;;;;;22.60;76.70;;;;;;5024064;28;19932;-79
2022/07/28 03:48:32;;;;;;;;;;;22.60;76.70;;;;;;5015106;28;19929;-80
2022/07/28 03:50:59;;;;;;;;;;;22.70;76.70;;;;;;5025397;28;19932;-79
2022/07/28 03:53:27;;;;;;;;;;;22.60;77.30;;;;;;5022526;28;19924;-80
2022/07/28 03:55:54;;;;;;;;;;;22.60;77.10;;;;;;5028933;28;19948;-80
2022/07/28 03:58:26;;;;;;;;;;;22.70;76.70;;;;;;5001095;28;20385;-79
2022/07/28 04:00:55;;;;;;;;;;;22.70;77.30;;;;;;5018244;28;19925;-80
2022/07/28 04:03:23;;;;;;;;;;;22.70;77.10;;;;;;5026675;28;19921;-79
2022/07/28 04:06:10;;;;;;;;;;;22.80;77.70;;;;;;5033486;28;20397;-79
2022/07/28 04:08:38;;;;;;;;;;;22.80;77.90;;;;;;5020282;28;19925;-79
2022/07/28 04:11:06;;;;;;;;;;;22.80;78.30;;;;;;5007441;28;21351;-78
2022/07/28 04:13:35;;;;;;;;;;;22.80;78.40;;;;;;5030686;28;19925;-79
2022/07/28 04:16:03;;;;;;;;;;;22.90;78.40;;;;;;5041775;28;19921;-79
2022/07/28 04:18:30;;;;;;;;;;;22.90;78.10;;;;;;5026998;28;19925;-79
2022/07/28 04:20:57;;;;;;;;;;;22.90;77.90;;;;;;5023271;28;20659;-78
2022/07/28 04:23:24;;;;;;;;;;;22.90;78.40;;;;;;5029236;28;19921;-79
2022/07/28 04:25:52;;;;;;;;;;;23.00;78.70;;;;;;5024726;28;19921;-79
2022/07/28 04:28:19;;;;;;;;;;;23.00;77.80;;;;;;5027453;28;20417;-79
2022/07/28 04:30:46;;;;;;;;;;;23.00;77.30;;;;;;5009235;28;19924;-80
2022/07/28 04:33:14;;;;;;;;;;;23.10;77.20;;;;;;5031321;28;20002;-79
2022/07/28 04:35:41;;;;;;;;;;;23.10;77.90;;;;;;5023160;28;19921;-78
2022/07/28 04:38:09;;;;;;;;;;;23.10;77.80;;;;;;5029848;28;20007;-78
2022/07/28 04:40:37;;;;;;;;;;;23.10;77.90;;;;;;5023324;28;19925;-79
2022/07/28 04:43:05;;;;;;;;;;;23.10;78.20;;;;;;5019247;28;19921;-79
2022/07/28 04:45:32;;;;;;;;;;;23.20;77.90;;;;;;5023547;28;19929;-79
2022/07/28 04:47:59;;;;;;;;;;;23.20;77.60;;;;;;5017788;28;19956;-79
2022/07/28 04:50:26;;;;;;;;;;;23.20;76.70;;;;;;5020090;28;19950;-79
2022/07/28 04:52:57;;;;;;;;;;;23.30;76.70;;;;;;5041699;28;20293;-79
2022/07/28 04:55:25;;;;;;;;;;;23.30;76.40;;;;;;5029603;28;19925;-79
2022/07/28 04:57:52;;;;;;;;;;;23.30;75.90;;;;;;5035887;28;19972;-79
2022/07/28 05:00:21;;;;;;;;;;;23.30;76.40;;;;;;5024747;28;20468;-79
2022/07/28 05:02:50;;;;;;;;;;;23.30;76.40;;;;;;5022516;28;19983;-80
2022/07/28 05:05:17;;;;;;;;;;;23.30;76.10;;;;;;5025238;28;19945;-79
2022/07/28 05:07:44;;;;;;;;;;;23.30;75.80;;;;;;5027077;28;19920;-79
2022/07/28 05:10:11;;;;;;;;;;;23.30;75.90;;;;;;5026861;28;19921;-78
2022/07/28 05:12:40;;;;;;;;;;;23.30;76.30;;;;;;5022434;28;19921;-80
2022/07/28 05:15:07;;;;;;;;;;;23.30;75.70;;;;;;5023564;28;19929;-79
2022/07/28 05:17:35;;;;;;;;;;;23.40;75.80;;;;;;5018157;28;20540;-79
2022/07/28 05:20:03;;;;;;;;;;;23.40;76.70;;;;;;5018861;28;20551;-79
2022/07/28 05:22:41;;;;;;;;;;;23.50;75.30;;;;;;5029784;28;19978;-80
2022/07/28 05:25:12;;;;;;;;;;;23.50;74.60;;;;;;5025254;28;19971;-78
2022/07/28 05:27:39;;;;;;;;;;;23.60;74.10;;;;;;5029553;28;19948;-78
2022/07/28 05:30:06;;;;;;;;;;;23.60;73.80;;;;;;5016643;28;19922;-80
2022/07/28 05:32:34;;;;;;;;;;;23.70;73.10;;;;;;5029696;28;19979;-79
2022/07/28 05:35:01;;;;;;;;;;;23.80;73.10;;;;;;5028690;28;19925;-78
2022/07/28 05:37:28;;;;;;;;;;;23.90;73.20;;;;;;5024300;28;20020;-78
2022/07/28 05:39:55;;;;;;;;;;;23.90;71.90;;;;;;5029495;28;19928;-79
2022/07/28 05:42:25;;;;;;;;;;;23.90;71.80;;;;;;5023434;28;19925;-79
2022/07/28 05:44:52;;;;;;;;;;;23.90;71.50;;;;;;5021364;28;19926;-78
2022/07/28 05:47:19;;;;;;;;;;;24.00;71.00;;;;;;5026789;28;19935;-80
2022/07/28 05:49:46;;;;;;;;;;;24.10;71.20;;;;;;5021922;28;19960;-79
2022/07/28 05:52:14;;;;;;;;;;;24.10;70.20;;;;;;5021427;28;19921;-79
2022/07/28 05:54:41;;;;;;;;;;;24.10;70.70;;;;;;5014245;28;20369;-79
2022/07/28 05:57:10;;;;;;;;;;;24.10;70.70;;;;;;5033417;28;20278;-79
2022/07/28 05:59:41;;;;;;;;;;;24.10;70.80;;;;;;5021997;28;19921;-79
2022/07/28 06:02:09;;;;;;;;;;;24.10;70.60;;;;;;5023536;28;19928;-79
2022/07/28 06:04:37;;;;;;;;;;;24.20;70.30;;;;;;5023813;28;19921;-78
2022/07/28 06:07:04;;;;;;;;;;;24.30;71.00;;;;;;5022936;28;19961;-79
2022/07/28 06:09:31;;;;;;;;;;;24.30;70.30;;;;;;5020384;28;19925;-79
2022/07/28 06:11:58;;;;;;;;;;;24.40;70.00;;;;;;5027485;28;20004;-80
2022/07/28 06:14:26;;;;;;;;;;;24.50;70.30;;;;;;5022146;28;20012;-79
2022/07/28 06:16:53;;;;;;;;;;;24.50;69.90;;;;;;5015465;28;20393;-80
2022/07/28 06:19:20;;;;;;;;;;;24.60;69.60;;;;;;5023309;28;19928;-80
2022/07/28 06:21:51;;;;;;;;;;;24.60;69.30;;;;;;5025024;28;19928;-79
2022/07/28 06:24:18;;;;;;;;;;;24.70;69.00;;;;;;5012535;28;19929;-79
2022/07/28 06:26:45;;;;;;;;;;;24.70;69.00;;;;;;5028412;28;19921;-79
2022/07/28 06:29:12;;;;;;;;;;;24.70;69.10;;;;;;5020079;28;20268;-79
2022/07/28 06:31:40;;;;;;;;;;;24.80;68.60;;;;;;5008787;28;20598;-78
2022/07/28 06:34:07;;;;;;;;;;;24.80;68.00;;;;;;5023509;28;19940;-79
2022/07/28 06:36:34;;;;;;;;;;;24.90;67.80;;;;;;5021248;28;19921;-78
2022/07/28 06:39:01;;;;;;;;;;;24.80;66.20;;;;;;5022095;28;19921;-79
2022/07/28 06:41:29;;;;;;;;;;;24.80;66.40;;;;;;5014374;28;19925;-79
2022/07/28 06:43:56;;;;;;;;;;;24.90;66.90;;;;;;5024031;28;19929;-79
2022/07/28 06:46:23;;;;;;;;;;;24.90;66.10;;;;;;5018245;28;20011;-78
2022/07/28 06:48:50;;;;;;;;;;;24.90;65.50;;;;;;5035404;28;20339;-79
2022/07/28 06:51:18;;;;;;;;;;;24.90;65.70;;;;;;5003584;28;20095;-78
2022/07/28 06:53:47;;;;;;;;;;;24.90;65.50;;;;;;5010387;28;19979;-79
2022/07/28 06:56:15;;;;;;;;;;;25.00;66.50;;;;;;4992839;28;20478;-78
2022/07/28 06:58:42;;;;;;;;;;;25.10;66.20;;;;;;5025884;28;19931;-79
2022/07/28 07:01:13;;;;;;;;;;;25.20;66.10;;;;;;5032023;28;19925;-81
2022/07/28 07:03:42;;;;;;;;;;;25.20;65.60;;;;;;5026096;28;19928;-78
2022/07/28 07:06:09;;;;;;;;;;;25.20;65.50;;;;;;5016470;28;20047;-79
2022/07/28 07:08:37;;;;;;;;;;;25.20;65.70;;;;;;5023149;28;19925;-79
2022/07/28 07:11:04;;;;;;;;;;;25.30;65.40;;;;;;5033025;28;20308;-78
2022/07/28 07:13:31;;;;;;;;;;;25.30;65.10;;;;;;5027544;28;19927;-81
2022/07/28 07:15:59;;;;;;;;;;;25.30;64.50;;;;;;5022953;28;20320;-79
2022/07/28 07:18:26;;;;;;;;;;;25.30;64.70;;;;;;5016115;28;19927;-78
2022/07/28 07:20:55;;;;;;;;;;;25.30;64.90;;;;;;5018606;28;19924;-80
2022/07/28 07:23:22;;;;;;;;;;;25.30;64.40;;;;;;5026072;28;19970;-79
2022/07/28 07:25:49;;;;;;;;;;;25.30;64.90;;;;;;5027179;28;20027;-79
2022/07/28 07:28:17;;;;;;;;;;;25.20;63.60;;;;;;5029944;28;19921;-78
2022/07/28 07:30:44;;;;;;;;;;;25.30;64.10;;;;;;5020691;28;19925;-79
2022/07/28 07:33:11;;;;;;;;;;;25.40;63.70;;;;;;5027415;28;19967;-79
2022/07/28 07:35:39;;;;;;;;;;;25.60;63.80;;;;;;5031433;28;20340;-79
2022/07/28 07:38:06;;;;;;;;;;;25.70;63.30;;;;;;5019005;28;20045;-79
2022/07/28 07:40:33;;;;;;;;;;;25.80;63.70;;;;;;5021357;28;20434;-78
2022/07/28 07:43:01;;;;;;;;;;;25.80;62.80;;;;;;5016238;28;20437;-81
2022/07/28 07:45:28;;;;;;;;;;;25.90;62.50;;;;;;5022741;28;20017;-78
2022/07/28 07:47:55;;;;;;;;;;;25.90;62.50;;;;;;5019786;28;20452;-78
2022/07/28 07:50:23;;;;;;;;;;;26.10;63.30;;;;;;5027626;28;19931;-78
2022/07/28 07:52:50;;;;;;;;;;;26.40;63.10;;;;;;5021727;28;19925;-78
2022/07/28 07:55:17;;;;;;;;;;;26.90;62.10;;;;;;5030925;28;19925;-79
2022/07/28 07:57:44;;;;;;;;;;;26.90;61.30;;;;;;5024346;28;20373;-79
2022/07/28 08:00:12;;;;;;;;;;;26.90;60.60;;;;;;5032892;28;20008;-79
2022/07/28 08:02:55;;;;;;;;;;;26.80;60.30;;;;;;5028043;28;19930;-79
2022/07/28 08:05:23;;;;;;;;;;;26.80;61.60;;;;;;5024240;28;20377;-79
2022/07/28 08:08:02;;;;;;;;;;;26.90;60.30;;;;;;5030842;28;20011;-80
2022/07/28 08:10:30;;;;;;;;;;;27.10;59.90;;;;;;5026892;28;19956;-78
2022/07/28 08:12:57;;;;;;;;;;;27.40;60.50;;;;;;5014115;28;24599;-80
2022/07/28 08:15:24;;;;;;;;;;;27.60;59.40;;;;;;5014087;28;19929;-78
2022/07/28 08:17:51;;;;;;;;;;;27.80;59.10;;;;;;4999651;28;19932;-78
2022/07/28 08:20:18;;;;;;;;;;;27.90;58.90;;;;;;5016526;28;19925;-80
2022/07/28 08:22:47;;;;;;;;;;;28.00;58.80;;;;;;5017425;28;20027;-79
2022/07/28 08:25:14;;;;;;;;;;;28.10;58.50;;;;;;5038301;28;20234;-79
2022/07/28 08:27:41;;;;;;;;;;;28.20;58.70;;;;;;5029440;28;19964;-78
2022/07/28 08:30:10;;;;;;;;;;;28.20;58.10;;;;;;5015446;28;19929;-81
2022/07/28 08:32:37;;;;;;;;;;;28.10;57.70;;;;;;5009370;28;20043;-79
2022/07/28 08:35:04;;;;;;;;;;;28.20;57.70;;;;;;5021304;28;19921;-79
2022/07/28 08:37:51;;;;;;;;;;;28.50;57.30;;;;;;5022687;28;19936;-79
2022/07/28 08:40:19;;;;;;;;;;;28.40;57.00;;;;;;5032268;28;19929;-80
2022/07/28 08:43:02;;;;;;;;;;;28.10;57.70;;;;;;5024130;28;19928;-80
2022/07/28 08:45:30;;;;;;;;;;;28.00;58.40;;;;;;5001619;28;20044;-81
2022/07/28 08:48:03;;;;;;;;;;;28.00;58.80;;;;;;5023102;28;19926;-79
2022/07/28 08:50:37;;;;;;;;;;;28.10;58.40;;;;;;5022851;28;19925;-80
2022/07/28 08:53:05;;;;;;;;;;;28.30;55.90;;;;;;5025553;28;20018;-81
2022/07/28 08:55:34;;;;;;;;;;;28.50;56.50;;;;;;5026795;28;19926;-79
2022/07/28 08:58:02;;;;;;;;;;;28.50;56.30;;;;;;5035250;28;20024;-79
2022/07/28 09:00:30;;;;;;;;;;;28.70;56.80;;;;;;5019357;28;19975;-78
2022/07/28 09:02:58;;;;;;;;;;;28.70;56.20;;;;;;5026661;28;19932;-78
2022/07/28 09:05:25;;;;;;;;;;;28.70;56.40;;;;;;5033792;28;19987;-80
2022/07/28 09:07:53;;;;;;;;;;;28.50;56.30;;;;;;5024867;28;19967;-79
2022/07/28 09:10:22;;;;;;;;;;;28.50;57.00;;;;;;5015773;28;20361;-79
2022/07/28 09:12:50;;;;;;;;;;;28.60;56.70;;;;;;5024803;28;20328;-78
2022/07/28 09:15:17;;;;;;;;;;;28.80;56.20;;;;;;5026428;28;19972;-78
2022/07/28 09:17:44;;;;;;;;;;;28.90;56.40;;;;;;5025840;28;19928;-78
2022/07/28 09:20:12;;;;;;;;;;;29.10;55.90;;;;;;5024041;28;19979;-78
2022/07/28 09:22:58;;;;;;;;;;;29.10;55.00;;;;;;5038892;28;19940;-78
2022/07/28 09:25:26;;;;;;;;;;;29.10;55.50;;;;;;5031724;28;19921;-80
2022/07/28 09:27:54;;;;;;;;;;;29.20;55.70;;;;;;5037611;28;20013;-79
2022/07/28 09:30:28;;;;;;;;;;;29.10;56.10;;;;;;5022538;28;19929;-78
2022/07/28 09:33:14;;;;;;;;;;;29.10;55.40;;;;;;5040003;28;19932;-78
2022/07/28 09:36:02;;;;;;;;;;;29.40;56.00;;;;;;5021248;28;20019;-79
2022/07/28 09:38:38;;;;;;;;;;;29.50;54.90;;;;;;5025258;28;20055;-79
2022/07/28 09:41:06;;;;;;;;;;;29.50;54.70;;;;;;5020778;28;19929;-78
2022/07/28 09:43:34;;;;;;;;;;;29.40;54.80;;;;;;5018566;28;20507;-78
2022/07/28 09:46:06;;;;;;;;;;;29.40;55.60;;;;;;5019451;28;20385;-79
2022/07/28 09:48:48;;;;;;;;;;;29.10;54.50;;;;;;5039133;28;19929;-79
2022/07/28 09:51:17;;;;;;;;;;;29.00;54.30;;;;;;5021280;28;19925;-78
2022/07/28 09:53:44;;;;;;;;;;;28.90;54.70;;;;;;5013175;28;19921;-79
2022/07/28 09:56:12;;;;;;;;;;;29.00;55.90;;;;;;5004441;28;19960;-78
2022/07/28 09:58:39;;;;;;;;;;;29.10;55.60;;;;;;5023059;28;19948;-79
2022/07/28 10:01:11;;;;;;;;;;;29.30;55.00;;;;;;5023167;28;19921;-77
2022/07/28 10:03:40;;;;;;;;;;;29.30;54.70;;;;;;5022360;28;19939;-78
2022/07/28 10:06:12;;;;;;;;;;;29.20;54.00;;;;;;5021917;28;19990;-77
2022/07/28 10:08:47;;;;;;;;;;;29.20;54.70;;;;;;5023695;28;19925;-78
2022/07/28 10:11:16;;;;;;;;;;;29.10;54.40;;;;;;5021424;28;19975;-79
2022/07/28 10:13:57;;;;;;;;;;;29.00;54.20;;;;;;5020071;28;19937;-79
2022/07/28 10:16:29;;;;;;;;;;;29.00;54.20;;;;;;5032317;28;19929;-78
2022/07/28 10:18:58;;;;;;;;;;;29.30;54.20;;;;;;5023131;28;19924;-80
2022/07/28 10:21:26;;;;;;;;;;;29.30;52.80;;;;;;5039507;28;20324;-78
2022/07/28 10:24:03;;;;;;;;;;;29.30;54.50;;;;;;5019764;28;19939;-78
2022/07/28 10:26:31;;;;;;;;;;;29.20;53.60;;;;;;5015537;28;19921;-77
2022/07/28 10:29:01;;;;;;;;;;;29.40;53.80;;;;;;5025727;28;19936;-78
2022/07/28 10:31:33;;;;;;;;;;;29.50;53.10;;;;;;5014982;28;19936;-78
2022/07/28 10:34:02;;;;;;;;;;;29.50;52.90;;;;;;5020293;28;19932;-79
2022/07/28 10:36:31;;;;;;;;;;;29.50;53.00;;;;;;5008346;28;20539;-78
2022/07/28 10:39:01;;;;;;;;;;;29.60;53.10;;;;;;5021394;28;20361;-78
2022/07/28 10:41:33;;;;;;;;;;;29.70;53.10;;;;;;5032469;28;19928;-78
2022/07/28 10:44:01;;;;;;;;;;;29.70;52.70;;;;;;5026871;28;20384;-79
2022/07/28 10:46:30;;;;;;;;;;;29.70;52.70;;;;;;5006187;28;19932;-77
2022/07/28 10:48:59;;;;;;;;;;;29.70;51.50;;;;;;5017910;28;19929;-79
2022/07/28 10:51:30;;;;;;;;;;;29.90;52.10;;;;;;5018161;28;20043;-78
2022/07/28 10:54:03;;;;;;;;;;;29.90;51.80;;;;;;5014449;28;20737;-79
2022/07/28 10:56:43;;;;;;;;;;;29.90;51.50;;;;;;5002803;28;19944;-78
2022/07/28 10:59:21;;;;;;;;;;;30.00;51.40;;;;;;5033678;28;19932;-78
2022/07/28 11:01:54;;;;;;;;;;;29.80;50.50;;;;;;5013950;28;19932;-78
2022/07/28 11:04:40;;;;;;;;;;;29.90;53.00;;;;;;5017310;28;19929;-79
2022/07/28 11:07:09;;;;;;;;;;;29.80;51.10;;;;;;5018007;28;19933;-78
2022/07/28 11:09:36;;;;;;;;;;;29.70;51.40;;;;;;5017716;28;19925;-78
2022/07/28 11:12:03;;;;;;;;;;;29.80;52.70;;;;;;5001079;28;19931;-79
2022/07/28 11:14:34;;;;;;;;;;;29.90;50.80;;;;;;5016992;28;19929;-78
2022/07/28 11:17:03;;;;;;;;;;;30.00;52.60;;;;;;5007061;28;19925;-78
2022/07/28 11:19:36;;;;;;;;;;;30.00;51.50;;;;;;5025150;28;19925;-80
2022/07/28 11:22:27;;;;;;;;;;;29.90;50.10;;;;;;5021428;28;19931;-78
2022/07/28 11:25:03;;;;;;;;;;;29.90;50.80;;;;;;5026438;28;19925;-80
2022/07/28 11:27:48;;;;;;;;;;;29.70;50.30;;;;;;4990910;28;19929;-79
2022/07/28 11:30:15;;;;;;;;;;;29.50;50.60;;;;;;5007439;28;20110;-79
2022/07/28 11:32:49;;;;;;;;;;;29.70;52.10;;;;;;5010725;28;19936;-79
2022/07/28 11:35:17;;;;;;;;;;;29.90;51.50;;;;;;5013842;28;19932;-79
2022/07/28 11:38:00;;;;;;;;;;;30.00;50.60;;;;;;5000482;28;19929;-79
2022/07/28 11:40:29;;;;;;;;;;;30.10;51.70;;;;;;5019095;28;19929;-81
2022/07/28 11:43:15;;;;;;;;;;;30.10;51.10;;;;;;5009156;28;19932;-80
2022/07/28 11:46:08;;;;;;;;;;;30.20;51.20;;;;;;5005554;28;19929;-80
2022/07/28 11:48:38;;;;;;;;;;;30.20;51.40;;;;;;5022179;28;19935;-79
2022/07/28 11:51:06;;;;;;;;;;;30.20;50.30;;;;;;5014607;28;19929;-79
2022/07/28 11:53:34;;;;;;;;;;;30.30;51.40;;;;;;5014585;28;19925;-80
2022/07/28 11:56:02;;;;;;;;;;;30.50;50.50;;;;;;4999597;28;19926;-79
2022/07/28 11:58:29;;;;;;;;;;;30.50;50.30;;;;;;5010164;28;19925;-79
2022/07/28 12:01:15;;;;;;;;;;;30.50;49.90;;;;;;5016767;28;20790;-79
2022/07/28 12:03:49;;;;;;;;;;;30.50;49.30;;;;;;5025456;28;19925;-78
2022/07/28 12:06:32;;;;;;;;;;;30.40;51.10;;;;;;5013501;28;19925;-79
2022/07/28 12:09:05;;;;;;;;;;;30.50;50.30;;;;;;5016311;28;19931;-80
2022/07/28 12:11:34;;;;;;;;;;;30.50;50.00;;;;;;5001221;28;20003;-79
2022/07/28 12:14:02;;;;;;;;;;;30.60;50.20;;;;;;5014356;28;19932;-80
2022/07/28 12:16:31;;;;;;;;;;;30.70;50.20;;;;;;5032373;28;20059;-79
2022/07/28 12:18:59;;;;;;;;;;;30.60;49.00;;;;;;5018104;28;19929;-79
2022/07/28 12:21:54;;;;;;;;;;;30.70;50.00;;;;;;5021558;28;19925;-79
2022/07/28 12:24:32;;;;;;;;;;;30.70;49.90;;;;;;5022474;28;19932;-78
2022/07/28 12:27:12;;;;;;;;;;;30.90;50.30;;;;;;5007607;28;19932;-79
2022/07/28 12:29:42;;;;;;;;;;;30.80;49.10;;;;;;5021481;28;20004;-79
2022/07/28 12:32:14;;;;;;;;;;;30.80;49.40;;;;;;5020428;28;20320;-79
2022/07/28 12:34:44;;;;;;;;;;;30.70;48.70;;;;;;5022095;28;20381;-78
2022/07/28 12:37:12;;;;;;;;;;;30.70;50.30;;;;;;5023310;28;19929;-78
2022/07/28 12:39:40;;;;;;;;;;;30.80;49.70;;;;;;5024497;28;19931;-78
2022/07/28 12:42:09;;;;;;;;;;;30.90;48.40;;;;;;5007298;28;19933;-79
2022/07/28 12:44:37;;;;;;;;;;;30.80;47.90;;;;;;5022292;28;20012;-78
2022/07/28 12:47:06;;;;;;;;;;;30.80;48.00;;;;;;5023896;28;19956;-79
2022/07/28 12:49:34;;;;;;;;;;;30.80;48.20;;;;;;5025747;28;19921;-79
2022/07/28 12:52:17;;;;;;;;;;;30.90;48.30;;;;;;5022714;28;19931;-79
2022/07/28 12:54:47;;;;;;;;;;;30.80;47.30;;;;;;5039657;28;19925;-79
2022/07/28 12:57:40;;;;;;;;;;;30.40;48.30;;;;;;5026343;28;20350;-79
2022/07/28 13:00:17;;;;;;;;;;;30.50;48.50;;;;;;5023164;28;20488;-78
2022/07/28 13:02:46;;;;;;;;;;;30.60;48.20;;;;;;5019341;28;19932;-79
2022/07/28 13:05:29;;;;;;;;;;;30.80;49.70;;;;;;5025855;28;19925;-80
2022/07/28 13:08:00;;;;;;;;;;;30.70;47.30;;;;;;5024334;28;19955;-79
2022/07/28 13:10:29;;;;;;;;;;;30.80;48.20;;;;;;5027430;28;19925;-79
2022/07/28 13:13:01;;;;;;;;;;;30.90;48.50;;;;;;5021161;28;19964;-81
2022/07/28 13:15:28;;;;;;;;;;;30.90;48.90;;;;;;5019683;28;19991;-80
2022/07/28 13:17:56;;;;;;;;;;;31.00;49.40;;;;;;5034489;28;20004;-81
2022/07/28 13:20:24;;;;;;;;;;;31.20;48.10;;;;;;5026516;28;19921;-81
2022/07/28 13:22:52;;;;;;;;;;;31.20;47.90;;;;;;5031058;28;19929;-81
2022/07/28 13:25:20;;;;;;;;;;;31.30;47.70;;;;;;5021444;28;19925;-82
2022/07/28 13:27:48;;;;;;;;;;;31.50;47.90;;;;;;5019242;28;19967;-80
2022/07/28 13:30:22;;;;;;;;;;;31.40;46.40;;;;;;5021641;28;20019;-80
2022/07/28 13:32:49;;;;;;;;;;;31.30;47.90;;;;;;5028383;28;19929;-80
2022/07/28 13:35:17;;;;;;;;;;;31.00;47.60;;;;;;5023010;28;19928;-80
2022/07/28 13:37:46;;;;;;;;;;;30.80;48.10;;;;;;5020629;28;19921;-80
2022/07/28 13:40:14;;;;;;;;;;;30.70;47.80;;;;;;5021143;28;19929;-80
2022/07/28 13:42:41;;;;;;;;;;;30.60;48.70;;;;;;5030683;28;19921;-80
2022/07/28 13:45:23;;;;;;;;;;;30.60;48.40;;;;;;5026284;28;20365;-79
2022/07/28 13:47:55;;;;;;;;;;;30.60;48.50;;;;;;5023596;28;19931;-79
2022/07/28 13:50:23;;;;;;;;;;;30.70;48.60;;;;;;5022269;28;19931;-80
2022/07/28 13:52:50;;;;;;;;;;;30.70;48.00;;;;;;5031748;28;19972;-81
2022/07/28 13:55:17;;;;;;;;;;;30.70;49.10;;;;;;5023969;28;20358;-80
2022/07/28 13:57:48;;;;;;;;;;;31.00;49.40;;;;;;5035619;28;19929;-79
2022/07/28 14:00:18;;;;;;;;;;;30.90;48.50;;;;;;5023488;28;19921;-81
2022/07/28 14:02:48;;;;;;;;;;;31.00;48.10;;;;;;5020064;28;20005;-80
2022/07/28 14:05:16;;;;;;;;;;;31.20;47.50;;;;;;5037715;28;19925;-81
2022/07/28 14:07:43;;;;;;;;;;;31.30;47.60;;;;;;5018398;28;20460;-80
2022/07/28 14:10:17;;;;;;;;;;;31.30;47.40;;;;;;5022157;28;19921;-81
2022/07/28 14:12:45;;;;;;;;;;;31.40;47.90;;;;;;5032628;28;19921;-80
2022/07/28 14:15:13;;;;;;;;;;;31.20;46.50;;;;;;5026808;28;20335;-78
2022/07/28 14:17:40;;;;;;;;;;;31.10;47.40;;;;;;5020698;28;19935;-79
2022/07/28 14:20:11;;;;;;;;;;;31.20;48.20;;;;;;5022640;28;19925;-78
2022/07/28 14:22:38;;;;;;;;;;;31.20;47.90;;;;;;5019694;28;20011;-79
2022/07/28 14:25:06;;;;;;;;;;;31.20;47.40;;;;;;5022828;28;20369;-79
2022/07/28 14:27:33;;;;;;;;;;;31.20;47.10;;;;;;5016019;28;19921;-78
2022/07/28 14:30:01;;;;;;;;;;;31.20;47.50;;;;;;5028363;28;19921;-78
2022/07/28 14:32:30;;;;;;;;;;;31.20;47.10;;;;;;5020814;28;19925;-80
2022/07/28 14:34:58;;;;;;;;;;;31.10;47.10;;;;;;4998927;28;19925;-79